createdAt,value
2018-07-30T00:04:00.873Z,67.60
2018-07-30T00:08:04.186Z,67.30
2018-07-30T00:12:07.702Z,68.10
2018-07-30T00:16:10.942Z,67.30
2018-07-30T00:20:14.161Z,67.70
2018-07-30T00:24:17.389Z,67.90
2018-07-30T00:28:20.619Z,68.10
2018-07-30T00:32:23.869Z,68.30
2018-07-30T00:36:27.083Z,68.50
2018-07-30T00:40:30.298Z,68.80
2018-07-30T00:44:33.570Z,69.20
2018-07-30T00:48:36.754Z,69.70
2018-07-30T00:52:40.076Z,70.60
2018-07-30T00:56:43.323Z,71.20
2018-07-30T01:00:46.540Z,71.80
2018-07-30T01:04:49.764Z,72.70
2018-07-30T01:08:52.993Z,73.20
2018-07-30T01:12:56.232Z,73.40
2018-07-30T01:16:59.485Z,73.90
2018-07-30T01:21:02.741Z,75.20
2018-07-30T01:25:06.063Z,75.90
2018-07-30T01:29:09.582Z,75.80
2018-07-30T01:33:12.830Z,76.80
2018-07-30T01:37:16.120Z,77.50
2018-07-30T01:41:19.564Z,77.70
2018-07-30T01:45:22.779Z,78.60
2018-07-30T01:49:26.030Z,79.80
2018-07-30T01:53:30.001Z,80.90
2018-07-30T01:57:33.257Z,80.90
2018-07-30T02:01:36.489Z,81.90
2018-07-30T02:05:39.717Z,82.30
2018-07-30T02:09:43.373Z,82.60
2018-07-30T02:13:46.606Z,83.10
2018-07-30T02:17:49.850Z,83.30
2018-07-30T02:21:53.101Z,83.90
2018-07-30T02:25:56.329Z,84.60
2018-07-30T02:29:59.542Z,85.50
2018-07-30T02:34:03.085Z,86.20
2018-07-30T02:38:06.362Z,86.40
2018-07-30T02:42:09.612Z,86.30
2018-07-30T02:46:12.846Z,86.70
2018-07-30T02:50:16.061Z,86.40
2018-07-30T02:54:19.300Z,86.70
2018-07-30T02:58:22.538Z,86.30
2018-07-30T03:02:25.798Z,86.10
2018-07-30T03:06:29.188Z,86.00
2018-07-30T03:10:32.436Z,86.40
2018-07-30T03:14:35.717Z,87.10
2018-07-30T03:18:38.952Z,87.30
2018-07-30T03:22:42.172Z,88.10
2018-07-30T03:26:45.504Z,88.40
2018-07-30T03:30:48.912Z,88.80
2018-07-30T03:34:52.139Z,89.70
2018-07-30T03:38:55.361Z,89.60
2018-07-30T03:42:58.624Z,90.00
2018-07-30T03:47:01.880Z,90.10
2018-07-30T03:51:05.134Z,89.60
2018-07-30T03:55:08.366Z,89.90
2018-07-30T03:59:12.552Z,90.50
2018-07-30T04:03:15.779Z,90.70
2018-07-30T04:07:19.060Z,91.10
2018-07-30T04:11:22.313Z,91.10
2018-07-30T04:15:25.544Z,90.90
2018-07-30T04:19:28.758Z,91.10
2018-07-30T04:23:32.338Z,91.20
2018-07-30T04:27:35.564Z,91.20
2018-07-30T04:35:41.800Z,91.80
2018-07-30T04:39:45.020Z,91.70
2018-07-30T04:43:48.335Z,91.30
2018-07-30T04:47:52.041Z,91.10
2018-07-30T04:51:56.045Z,91.30
2018-07-30T04:55:59.315Z,91.30
2018-07-30T05:00:02.523Z,91.20
2018-07-30T05:04:05.823Z,90.80
2018-07-30T05:08:09.061Z,89.80
2018-07-30T05:12:12.277Z,90.10
2018-07-30T05:16:15.533Z,90.00
2018-07-30T05:20:18.801Z,89.50
2018-07-30T05:24:22.064Z,89.10
2018-07-30T05:28:25.299Z,88.20
2018-07-30T05:32:28.542Z,87.60
2018-07-30T05:36:31.788Z,86.80
2018-07-30T05:40:35.025Z,87.00
2018-07-30T05:44:38.276Z,86.00
2018-07-30T05:48:41.542Z,85.50
2018-07-30T05:52:44.856Z,84.60
2018-07-30T05:56:48.396Z,84.40
2018-07-30T06:00:51.623Z,82.60
2018-07-30T06:04:54.863Z,81.80
2018-07-30T06:08:58.167Z,81.20
2018-07-30T06:13:01.410Z,80.40
2018-07-30T06:17:04.636Z,79.20
2018-07-30T06:21:07.894Z,78.60
2018-07-30T06:25:11.151Z,77.90
2018-07-30T06:29:14.413Z,76.90
2018-07-30T06:33:17.651Z,75.40
2018-07-30T06:37:20.868Z,74.60
2018-07-30T06:41:24.169Z,73.30
2018-07-30T06:45:27.412Z,72.50
2018-07-30T06:49:30.665Z,72.00
2018-07-30T06:53:33.902Z,69.10
2018-07-30T06:57:37.258Z,68.20
2018-07-30T07:01:40.494Z,68.70
2018-07-30T07:05:43.741Z,67.60
2018-07-30T07:09:47.282Z,68.10
2018-07-30T07:13:50.666Z,67.00
2018-07-30T07:17:54.411Z,67.00
2018-07-30T07:21:57.691Z,68.40
2018-07-30T07:26:00.898Z,68.40
2018-07-30T07:30:05.637Z,67.30
2018-07-30T07:34:09.245Z,67.30
2018-07-30T07:38:12.485Z,66.20
2018-07-30T07:42:15.750Z,65.80
2018-07-30T07:46:18.972Z,65.10
2018-07-30T07:50:22.389Z,64.80
2018-07-30T07:54:25.474Z,64.40
2018-07-30T07:58:28.750Z,62.80
2018-07-30T08:02:31.988Z,60.80
2018-07-30T08:06:35.213Z,61.50
2018-07-30T08:10:38.477Z,60.90
2018-07-30T08:14:41.713Z,59.70
2018-07-30T08:18:44.946Z,58.10
2018-07-30T08:22:48.277Z,58.30
2018-07-30T08:26:51.828Z,58.70
2018-07-30T08:30:55.509Z,58.30
2018-07-30T08:34:58.748Z,56.80
2018-07-30T08:39:01.977Z,57.40
2018-07-30T08:43:05.224Z,57.30
2018-07-30T08:47:08.562Z,56.90
2018-07-30T08:51:12.116Z,56.30
2018-07-30T08:55:15.345Z,56.10
2018-07-30T08:59:18.888Z,56.30
2018-07-30T09:03:22.157Z,54.90
2018-07-30T09:07:25.414Z,54.80
2018-07-30T09:11:28.664Z,53.60
2018-07-30T09:15:31.948Z,53.30
2018-07-30T09:19:35.476Z,54.40
2018-07-30T09:23:38.723Z,54.00
2018-07-30T09:27:41.960Z,52.80
2018-07-30T09:31:45.196Z,53.60
2018-07-30T09:35:48.796Z,52.40
2018-07-30T09:39:52.224Z,49.10
2018-07-30T09:43:55.468Z,46.80
2018-07-30T09:47:59.683Z,46.50
2018-07-30T09:52:02.899Z,43.40
2018-07-30T09:56:06.258Z,43.00
2018-07-30T10:00:09.968Z,43.00
2018-07-30T10:04:13.209Z,42.80
2018-07-30T10:08:16.812Z,41.10
2018-07-30T10:12:20.053Z,40.30
2018-07-30T10:16:23.280Z,41.80
2018-07-30T10:20:26.535Z,42.80
2018-07-30T10:24:29.761Z,43.30
2018-07-30T10:32:36.884Z,40.80
2018-07-30T10:36:40.105Z,40.80
2018-07-30T10:40:43.394Z,40.40
2018-07-30T10:44:46.621Z,39.90
2018-07-30T10:48:50.700Z,39.30
2018-07-30T10:52:53.920Z,40.70
2018-07-30T10:56:57.164Z,42.10
2018-07-30T11:01:00.418Z,45.10
2018-07-30T11:05:04.353Z,42.20
2018-07-30T11:09:09.021Z,38.90
2018-07-30T11:13:12.280Z,37.50
2018-07-30T11:17:15.510Z,35.40
2018-07-30T11:21:18.754Z,34.60
2018-07-30T11:25:22.037Z,34.00
2018-07-30T11:29:25.209Z,33.60
2018-07-30T11:33:28.544Z,35.00
2018-07-30T11:37:32.334Z,35.20
2018-07-30T11:41:35.575Z,37.30
2018-07-30T11:45:38.811Z,38.30
2018-07-30T11:49:42.070Z,37.40
2018-07-30T11:53:45.316Z,36.90
2018-07-30T11:57:48.860Z,37.10
2018-07-30T12:05:55.500Z,38.50
2018-07-30T12:09:58.768Z,38.30
2018-07-30T12:14:02.038Z,39.50
2018-07-30T12:18:05.629Z,37.70
2018-07-30T12:22:08.865Z,38.20
2018-07-30T12:26:12.103Z,36.60
2018-07-30T12:30:15.547Z,35.40
2018-07-30T12:34:18.701Z,36.10
2018-07-30T12:38:22.347Z,35.40
2018-07-30T12:42:25.598Z,37.80
2018-07-30T12:46:29.454Z,37.70
2018-07-30T12:50:33.338Z,37.70
2018-07-30T12:54:36.546Z,37.30
2018-07-30T12:58:40.607Z,36.90
2018-07-30T13:02:43.856Z,37.00
2018-07-30T13:06:47.090Z,37.60
2018-07-30T13:10:50.647Z,38.40
2018-07-30T13:14:53.868Z,36.10
2018-07-30T13:18:57.088Z,34.80
2018-07-30T13:23:00.632Z,33.90
2018-07-30T13:27:03.949Z,33.70
2018-07-30T13:31:07.265Z,36.60
2018-07-30T13:35:10.761Z,36.60
2018-07-30T13:39:13.992Z,36.10
2018-07-30T13:43:18.048Z,34.80
2018-07-30T13:47:21.321Z,34.70
2018-07-30T13:51:24.948Z,34.20
2018-07-30T13:55:28.528Z,32.60
2018-07-30T13:59:31.790Z,31.70
2018-07-30T14:08:01.205Z,33.30
2018-07-30T14:12:04.445Z,33.90
2018-07-30T14:16:07.712Z,34.70
2018-07-30T14:20:11.153Z,35.20
2018-07-30T14:24:14.388Z,35.50
2018-07-30T14:28:18.490Z,36.20
2018-07-30T14:32:21.704Z,37.00
2018-07-30T14:36:24.949Z,37.90
2018-07-30T14:40:28.228Z,37.60
2018-07-30T14:44:31.515Z,36.30
2018-07-30T14:48:34.753Z,35.80
2018-07-30T14:52:38.008Z,34.90
2018-07-30T14:56:41.301Z,35.70
2018-07-30T15:00:44.572Z,36.70
2018-07-30T15:04:47.804Z,36.70
2018-07-30T15:08:51.102Z,35.80
2018-07-30T15:12:54.335Z,35.70
2018-07-30T15:16:57.584Z,34.80
2018-07-30T15:21:00.876Z,35.30
2018-07-30T15:25:04.339Z,35.50
2018-07-30T15:29:07.592Z,37.30
2018-07-30T15:33:10.874Z,37.10
2018-07-30T15:37:14.174Z,36.10
2018-07-30T15:41:17.669Z,36.40
2018-07-30T15:45:22.702Z,35.90
2018-07-30T15:49:25.981Z,35.60
2018-07-30T15:53:29.208Z,33.70
2018-07-30T15:57:32.520Z,33.00
2018-07-30T16:01:35.849Z,33.10
2018-07-30T16:05:39.151Z,33.60
2018-07-30T16:09:42.367Z,32.60
2018-07-30T16:13:45.582Z,31.90
2018-07-30T16:17:48.827Z,32.60
2018-07-30T16:21:52.085Z,33.10
2018-07-30T16:29:58.395Z,31.90
2018-07-30T16:34:01.653Z,31.80
2018-07-30T16:38:05.002Z,31.10
2018-07-30T16:42:08.242Z,31.90
2018-07-30T16:46:11.475Z,33.10
2018-07-30T16:50:14.729Z,34.50
2018-07-30T16:54:17.950Z,34.00
2018-07-30T16:58:21.188Z,34.40
2018-07-30T17:02:24.407Z,35.50
2018-07-30T17:06:27.640Z,34.40
2018-07-30T17:10:30.909Z,33.80
2018-07-30T17:14:34.173Z,33.00
2018-07-30T17:18:37.573Z,32.70
2018-07-30T17:22:41.648Z,33.40
2018-07-30T17:26:44.936Z,33.20
2018-07-30T17:30:48.190Z,33.20
2018-07-30T17:34:51.504Z,34.70
2018-07-30T17:38:54.820Z,34.50
2018-07-30T17:42:58.010Z,35.50
2018-07-30T17:47:01.246Z,33.70
2018-07-30T17:51:04.549Z,32.60
2018-07-30T17:55:08.100Z,32.90
2018-07-30T17:59:11.436Z,32.40
2018-07-30T18:03:14.676Z,31.90
2018-07-30T18:07:17.928Z,33.00
2018-07-30T18:11:21.156Z,32.60
2018-07-30T18:15:24.475Z,33.10
2018-07-30T18:19:27.702Z,32.60
2018-07-30T18:23:30.993Z,32.80
2018-07-30T18:27:34.220Z,33.50
2018-07-30T18:31:37.506Z,34.00
2018-07-30T18:35:40.744Z,34.40
2018-07-30T18:39:44.056Z,35.10
2018-07-30T18:43:49.340Z,36.20
2018-07-30T18:47:52.669Z,37.00
2018-07-30T18:51:56.389Z,37.10
2018-07-30T18:55:59.934Z,38.80
2018-07-30T19:00:03.645Z,40.70
2018-07-30T19:04:06.900Z,42.20
2018-07-30T19:08:10.197Z,43.30
2018-07-30T19:12:13.477Z,44.10
2018-07-30T19:16:17.145Z,44.40
2018-07-30T19:20:20.403Z,45.10
2018-07-30T19:24:27.028Z,46.30
2018-07-30T19:28:30.573Z,46.40
2018-07-30T19:32:33.826Z,47.00
2018-07-30T19:36:37.364Z,47.30
2018-07-30T19:40:41.309Z,47.80
2018-07-30T19:44:44.938Z,49.10
2018-07-30T19:48:48.508Z,49.70
2018-07-30T19:52:51.907Z,50.50
2018-07-30T19:56:56.565Z,51.80
2018-07-30T20:01:00.078Z,53.20
2018-07-30T20:05:03.372Z,54.10
2018-07-30T20:09:08.763Z,55.50
2018-07-30T20:17:15.239Z,57.50
2018-07-30T20:21:18.630Z,58.60
2018-07-30T20:25:21.970Z,59.20
2018-07-30T20:29:25.245Z,59.80
2018-07-30T20:33:29.724Z,60.80
2018-07-30T20:37:33.152Z,61.50
2018-07-30T20:41:36.699Z,63.30
2018-07-30T20:45:40.065Z,65.00
2018-07-30T20:49:43.605Z,65.40
2018-07-30T20:53:47.184Z,66.80
2018-07-30T20:57:50.859Z,67.50
2018-07-30T21:01:54.141Z,68.80
2018-07-30T21:05:57.453Z,70.30
2018-07-30T21:10:01.385Z,71.10
2018-07-30T21:14:04.825Z,71.90
2018-07-30T21:18:08.182Z,72.60
2018-07-30T21:22:11.476Z,73.50
2018-07-30T21:26:14.717Z,74.50
2018-07-30T21:30:19.936Z,74.70
2018-07-30T21:34:23.453Z,74.80
2018-07-30T21:38:26.884Z,75.70
2018-07-30T21:42:30.161Z,76.20
2018-07-30T21:46:33.706Z,76.70
2018-07-30T21:50:36.951Z,76.90
2018-07-30T21:54:40.329Z,77.20
2018-07-30T21:58:43.672Z,77.70
2018-07-30T22:02:47.232Z,78.30
2018-07-30T22:06:50.584Z,78.60
2018-07-30T22:10:54.084Z,80.20
2018-07-30T22:14:57.329Z,80.80
2018-07-30T22:19:00.602Z,80.80
2018-07-30T22:23:03.838Z,81.20
2018-07-30T22:27:07.124Z,81.70
2018-07-30T22:31:10.363Z,81.90
2018-07-30T22:35:13.609Z,82.00
2018-07-30T22:39:16.910Z,82.20
2018-07-30T22:43:20.153Z,82.60
2018-07-30T22:47:23.372Z,83.30
2018-07-30T22:51:26.652Z,83.50
2018-07-30T22:55:29.913Z,84.00
2018-07-30T22:59:33.249Z,84.40
2018-07-30T23:03:36.503Z,84.90
2018-07-30T23:07:39.754Z,85.30
2018-07-30T23:11:42.982Z,85.80
2018-07-30T23:15:46.244Z,86.50
2018-07-30T23:19:49.481Z,86.40
2018-07-30T23:23:52.716Z,86.60
2018-07-30T23:27:55.957Z,86.60
2018-07-30T23:31:59.451Z,86.90
2018-07-30T23:36:02.680Z,87.10
2018-07-30T23:40:06.938Z,87.50
2018-07-30T23:44:10.224Z,87.80
2018-07-30T23:48:13.445Z,87.90
2018-07-30T23:52:16.679Z,87.70
2018-07-30T23:56:19.925Z,88.20
